createdAt,value
2022-10-05T00:00:20.233Z,6.28
2022-10-05T00:02:52.461Z,6.35
2022-10-05T00:05:32.359Z,6.43
2022-10-05T00:08:30.646Z,6.43
2022-10-05T00:10:57.893Z,6.25
2022-10-05T00:13:29.765Z,6.45
2022-10-05T00:16:15.618Z,6.13
2022-10-05T00:19:05.118Z,6.55
2022-10-05T00:21:36.002Z,6.60
2022-10-05T00:24:09.826Z,6.40
2022-10-05T00:26:39.615Z,6.30
2022-10-05T00:29:27.288Z,6.28
2022-10-05T00:31:54.538Z,6.28
2022-10-05T00:34:21.700Z,6.40
2022-10-05T00:36:49.155Z,6.65
2022-10-05T00:39:18.290Z,6.85
2022-10-05T00:42:27.764Z,6.63
2022-10-05T00:45:15.656Z,6.13
2022-10-05T00:48:05.506Z,6.20
2022-10-05T00:51:04.271Z,6.57
2022-10-05T00:54:05.452Z,6.13
2022-10-05T00:56:54.156Z,6.50
2022-10-05T00:59:40.381Z,6.40
2022-10-05T01:02:15.523Z,7.07
2022-10-05T01:04:54.299Z,6.55
2022-10-05T01:07:35.363Z,6.47
2022-10-05T01:10:25.146Z,6.65
2022-10-05T01:13:03.241Z,6.03
2022-10-05T01:16:09.663Z,6.05
2022-10-05T01:18:46.313Z,6.20
2022-10-05T01:21:22.109Z,6.07
2022-10-05T01:23:55.249Z,6.28
2022-10-05T01:27:05.009Z,6.00
2022-10-05T01:29:53.251Z,6.20
2022-10-05T01:32:51.528Z,7.05
2022-10-05T01:35:26.821Z,7.15
2022-10-05T01:38:09.518Z,6.05
2022-10-05T01:40:48.121Z,6.75
2022-10-05T01:43:40.208Z,6.72
2022-10-05T01:46:24.447Z,6.35
2022-10-05T01:48:58.098Z,5.82
2022-10-05T01:51:48.141Z,6.60
2022-10-05T01:54:39.604Z,6.53
2022-10-05T01:57:30.423Z,6.40
2022-10-05T02:00:10.251Z,6.00
2022-10-05T02:02:48.831Z,6.47
2022-10-05T02:05:30.126Z,5.95
2022-10-05T02:08:01.687Z,6.00
2022-10-05T02:10:32.943Z,6.57
2022-10-05T02:13:44.223Z,6.65
2022-10-05T02:16:34.912Z,6.32
2022-10-05T02:19:21.276Z,6.30
2022-10-05T02:21:53.535Z,7.05
2022-10-05T02:24:24.896Z,6.30
2022-10-05T02:26:55.471Z,7.07
2022-10-05T02:29:27.606Z,6.78
2022-10-05T02:32:03.957Z,7.05
2022-10-05T02:34:41.754Z,6.28
2022-10-05T02:37:21.875Z,6.25
2022-10-05T02:39:57.663Z,6.70
2022-10-05T02:42:37.257Z,6.32
2022-10-05T02:45:13.723Z,6.60
2022-10-05T02:48:05.275Z,6.53
2022-10-05T02:50:52.832Z,6.53
2022-10-05T02:53:26.616Z,6.32
2022-10-05T02:56:03.764Z,6.43
2022-10-05T02:58:51.222Z,6.68
2022-10-05T03:01:34.261Z,6.30
2022-10-05T03:04:14.229Z,7.40
2022-10-05T03:06:51.944Z,6.47
2022-10-05T03:09:24.833Z,6.72
2022-10-05T03:12:11.357Z,6.20
2022-10-05T03:14:48.115Z,6.57
2022-10-05T03:17:22.419Z,6.38
2022-10-05T03:20:09.838Z,6.55
2022-10-05T03:22:59.295Z,6.97
2022-10-05T03:25:48.325Z,6.30
2022-10-05T03:28:31.976Z,6.47
2022-10-05T03:31:24.017Z,6.72
2022-10-05T03:34:02.104Z,7.68
2022-10-05T03:37:09.651Z,6.15
2022-10-05T03:39:49.941Z,6.82
2022-10-05T03:42:35.527Z,6.18
2022-10-05T03:45:28.162Z,6.32
2022-10-05T03:48:16.725Z,6.40
2022-10-05T03:50:56.545Z,6.53
2022-10-05T03:53:28.244Z,6.60
2022-10-05T03:56:03.364Z,7.05
2022-10-05T03:58:50.999Z,6.35
2022-10-05T04:01:25.425Z,6.45
2022-10-05T04:06:44.281Z,6.88
2022-10-05T04:09:20.868Z,6.75
2022-10-05T04:12:11.172Z,6.72
2022-10-05T04:14:43.904Z,6.60
2022-10-05T04:17:30.385Z,6.93
2022-10-05T04:20:06.187Z,7.18
2022-10-05T04:23:06.218Z,6.80
2022-10-05T04:25:57.784Z,7.00
2022-10-05T04:29:02.567Z,6.72
2022-10-05T04:31:48.702Z,6.50
2022-10-05T04:34:41.170Z,6.20
2022-10-05T04:37:19.321Z,6.72
2022-10-05T04:40:20.724Z,6.95
2022-10-05T04:43:04.076Z,7.50
2022-10-05T04:45:59.536Z,7.33
2022-10-05T04:48:36.847Z,6.65
2022-10-05T04:51:19.992Z,7.25
2022-10-05T04:54:17.473Z,6.75
2022-10-05T04:56:55.086Z,7.32
2022-10-05T04:59:39.550Z,7.05
2022-10-05T05:02:28.704Z,8.18
2022-10-05T05:05:17.679Z,7.53
2022-10-05T05:08:06.946Z,7.60
2022-10-05T05:10:50.321Z,7.35
2022-10-05T05:13:39.355Z,7.32
2022-10-05T05:16:21.458Z,8.13
2022-10-05T05:19:09.547Z,7.72
2022-10-05T05:21:55.189Z,8.27
2022-10-05T05:25:02.747Z,9.23
2022-10-05T05:27:56.359Z,8.32
2022-10-05T05:30:46.101Z,8.40
2022-10-05T05:33:27.975Z,8.50
2022-10-05T05:36:03.786Z,9.57
2022-10-05T05:38:46.853Z,8.50
2022-10-05T05:41:39.185Z,9.02
2022-10-05T05:44:27.889Z,8.98
2022-10-05T05:47:03.905Z,9.43
2022-10-05T05:50:36.470Z,9.13
2022-10-05T05:53:23.176Z,9.43
2022-10-05T05:56:05.091Z,9.35
2022-10-05T05:58:56.523Z,9.23
2022-10-05T06:01:34.230Z,9.35
2022-10-05T06:04:20.719Z,8.75
2022-10-05T06:07:08.664Z,9.85
2022-10-05T06:09:50.669Z,9.50
2022-10-05T06:12:45.032Z,8.55
2022-10-05T06:15:59.397Z,9.13
2022-10-05T06:18:39.439Z,9.18
2022-10-05T06:21:26.770Z,9.25
2022-10-05T06:24:17.820Z,10.40
2022-10-05T06:27:29.844Z,9.43
2022-10-05T06:30:14.371Z,9.30
2022-10-05T06:33:05.011Z,10.05
2022-10-05T06:35:53.738Z,9.73
2022-10-05T06:38:53.662Z,9.90
2022-10-05T06:41:53.091Z,10.20
2022-10-05T06:44:53.554Z,9.27
2022-10-05T06:48:09.244Z,9.32
2022-10-05T06:51:45.279Z,9.37
2022-10-05T06:54:52.303Z,8.82
2022-10-05T06:57:32.506Z,9.85
2022-10-05T07:00:15.413Z,9.82
2022-10-05T07:02:49.838Z,9.63
2022-10-05T07:05:29.289Z,9.55
2022-10-05T07:08:00.313Z,9.90
2022-10-05T07:10:36.988Z,8.95
2022-10-05T07:13:33.512Z,9.30
2022-10-05T07:16:04.085Z,9.75
2022-10-05T07:18:49.776Z,9.73
2022-10-05T07:24:11.800Z,8.82
2022-10-05T07:26:50.743Z,8.73
2022-10-05T07:29:45.587Z,9.57
2022-10-05T07:32:42.132Z,8.60
2022-10-05T07:35:49.433Z,9.05
2022-10-05T07:38:43.074Z,8.85
2022-10-05T07:41:20.380Z,9.18
2022-10-05T07:44:16.121Z,8.90
2022-10-05T07:46:56.299Z,8.93
2022-10-05T07:50:04.047Z,9.18
2022-10-05T07:52:48.732Z,8.95
2022-10-05T07:55:44.444Z,8.77
2022-10-05T07:58:18.600Z,9.02
2022-10-05T08:04:04.944Z,9.15
2022-10-05T08:06:41.136Z,8.15
2022-10-05T08:09:38.439Z,8.35
2022-10-05T08:12:43.472Z,8.18
2022-10-05T08:17:55.386Z,8.57
2022-10-05T08:20:47.351Z,8.10
2022-10-05T08:23:33.192Z,8.38
2022-10-05T08:26:26.947Z,8.82
2022-10-05T08:29:13.494Z,8.07
2022-10-05T08:31:47.931Z,9.13
2022-10-05T08:35:00.399Z,9.07
2022-10-05T08:37:32.247Z,8.35
2022-10-05T08:40:24.465Z,8.50
2022-10-05T08:42:57.749Z,9.10
2022-10-05T08:45:58.584Z,8.93
2022-10-05T08:48:42.624Z,8.77
2022-10-05T08:51:21.819Z,8.63
2022-10-05T08:53:56.076Z,8.77
2022-10-05T08:56:32.858Z,8.88
2022-10-05T08:59:18.274Z,8.88
2022-10-05T09:01:48.763Z,9.23
2022-10-05T09:04:30.881Z,7.90
2022-10-05T09:07:20.278Z,7.45
2022-10-05T09:10:17.278Z,7.78
2022-10-05T09:13:25.795Z,7.45
2022-10-05T09:16:21.889Z,7.57
2022-10-05T09:19:13.669Z,7.30
2022-10-05T09:22:18.002Z,7.38
2022-10-05T09:25:12.050Z,7.55
2022-10-05T09:27:49.377Z,7.70
2022-10-05T09:30:33.654Z,7.82
2022-10-05T09:33:30.697Z,7.95
2022-10-05T09:36:34.300Z,8.43
2022-10-05T09:39:38.476Z,8.73
2022-10-05T09:42:33.917Z,9.47
2022-10-05T09:45:26.243Z,8.95
2022-10-05T09:48:11.694Z,8.52
2022-10-05T09:50:40.815Z,8.90
2022-10-05T09:53:22.726Z,8.25
2022-10-05T09:56:11.716Z,8.60
2022-10-05T09:58:44.895Z,8.13
2022-10-05T10:01:34.331Z,8.20
2022-10-05T10:04:16.999Z,7.20
2022-10-05T10:07:05.001Z,7.18
2022-10-05T10:10:00.264Z,6.68
2022-10-05T10:12:53.899Z,7.43
2022-10-05T10:15:45.885Z,7.25
2022-10-05T10:18:19.132Z,7.28
2022-10-05T10:21:13.497Z,6.88
2022-10-05T10:23:43.301Z,7.10
2022-10-05T10:26:48.875Z,6.32
2022-10-05T10:32:42.965Z,7.13
2022-10-05T10:35:52.787Z,7.45
2022-10-05T10:38:28.682Z,7.63
2022-10-05T10:40:58.696Z,7.40
2022-10-05T10:43:57.201Z,7.15
2022-10-05T10:46:30.477Z,6.60
2022-10-05T10:49:16.604Z,7.05
2022-10-05T10:51:49.585Z,6.75
2022-10-05T10:54:40.897Z,7.07
2022-10-05T10:57:20.813Z,7.05
2022-10-05T11:00:24.343Z,6.82
2022-10-05T11:03:08.828Z,6.50
2022-10-05T11:06:17.113Z,6.28
2022-10-05T11:08:44.211Z,6.50
2022-10-05T11:11:30.931Z,5.80
2022-10-05T11:14:16.477Z,6.13
2022-10-05T11:17:06.653Z,6.05
2022-10-05T11:20:03.544Z,6.82
2022-10-05T11:22:50.114Z,6.15
2022-10-05T11:25:41.454Z,5.20
2022-10-05T11:28:42.756Z,5.47
2022-10-05T11:31:48.062Z,5.35
2022-10-05T11:34:34.077Z,5.70
2022-10-05T11:37:36.401Z,5.10
2022-10-05T11:40:36.351Z,5.32
2022-10-05T11:43:28.683Z,4.80
2022-10-05T11:45:58.900Z,4.65
2022-10-05T11:48:40.703Z,4.60
2022-10-05T11:51:36.812Z,4.72
2022-10-05T11:54:09.895Z,4.72
2022-10-05T11:57:25.451Z,4.90
2022-10-05T11:59:58.461Z,4.63
2022-10-05T12:02:47.453Z,4.65
2022-10-05T12:05:42.691Z,4.70
2022-10-05T12:08:29.467Z,4.85
2022-10-05T12:11:05.752Z,4.57
2022-10-05T12:13:42.236Z,4.50
2022-10-05T12:16:22.759Z,4.20
2022-10-05T12:19:02.203Z,4.75
2022-10-05T12:21:29.279Z,4.25
2022-10-05T12:24:04.915Z,3.95
2022-10-05T12:26:40.545Z,3.38
2022-10-05T12:29:22.669Z,3.80
2022-10-05T12:32:03.136Z,3.45
2022-10-05T12:35:13.269Z,3.50
2022-10-05T12:37:52.755Z,4.10
2022-10-05T12:40:25.133Z,3.60
2022-10-05T12:43:08.461Z,3.60
2022-10-05T12:45:57.280Z,4.50
2022-10-05T12:49:01.997Z,3.80
2022-10-05T12:51:43.127Z,3.90
2022-10-05T12:54:34.642Z,4.18
2022-10-05T12:57:19.987Z,3.50
2022-10-05T12:59:47.005Z,3.55
2022-10-05T13:02:42.421Z,3.17
2022-10-05T13:05:09.500Z,3.20
2022-10-05T13:08:01.285Z,3.40
2022-10-05T13:10:49.294Z,3.28
2022-10-05T13:13:34.836Z,3.50
2022-10-05T13:16:05.763Z,3.58
2022-10-05T13:18:38.633Z,3.67
2022-10-05T13:21:05.836Z,3.47
2022-10-05T13:23:57.246Z,3.50
2022-10-05T13:26:43.072Z,3.15
2022-10-05T13:29:20.526Z,3.47
2022-10-05T13:32:17.984Z,3.17
2022-10-05T13:35:05.782Z,3.65
2022-10-05T13:38:01.754Z,3.40
2022-10-05T13:40:32.564Z,3.63
2022-10-05T13:43:30.612Z,3.35
2022-10-05T13:46:07.050Z,2.88
2022-10-05T13:49:04.796Z,3.55
2022-10-05T13:51:45.766Z,3.25
2022-10-05T13:54:40.503Z,3.47
2022-10-05T14:00:00.763Z,2.60
2022-10-05T14:02:31.483Z,3.22
2022-10-05T14:05:02.813Z,2.97
2022-10-05T14:07:39.436Z,3.03
2022-10-05T14:10:15.039Z,3.85
2022-10-05T14:12:44.410Z,3.50
2022-10-05T14:15:28.602Z,3.20
2022-10-05T14:17:56.148Z,3.50
2022-10-05T14:20:26.844Z,3.35
2022-10-05T14:23:03.742Z,3.13
2022-10-05T14:25:45.363Z,2.97
2022-10-05T14:28:12.465Z,3.10
2022-10-05T14:30:40.480Z,3.22
2022-10-05T14:33:16.273Z,3.13
2022-10-05T14:35:55.548Z,3.38
2022-10-05T14:38:28.583Z,3.08
2022-10-05T14:41:07.969Z,3.20
2022-10-05T14:43:36.417Z,3.40
2022-10-05T14:46:23.170Z,2.50
2022-10-05T14:49:25.727Z,2.78
2022-10-05T14:51:54.515Z,2.67
2022-10-05T14:54:29.680Z,3.13
2022-10-05T14:57:25.228Z,3.03
2022-10-05T15:00:02.182Z,3.00
2022-10-05T15:03:17.379Z,3.40
2022-10-05T15:08:36.074Z,2.95
2022-10-05T15:11:09.674Z,2.88
2022-10-05T15:13:41.890Z,2.92
2022-10-05T15:16:20.400Z,2.50
2022-10-05T15:19:08.214Z,2.60
2022-10-05T15:21:55.963Z,3.28
2022-10-05T15:24:34.538Z,2.95
2022-10-05T15:27:04.206Z,4.03
2022-10-05T15:29:52.260Z,3.20
2022-10-05T15:32:41.663Z,2.92
2022-10-05T15:35:37.099Z,2.60
2022-10-05T15:38:26.499Z,2.40
2022-10-05T15:41:08.774Z,2.75
2022-10-05T15:43:47.947Z,2.80
2022-10-05T15:46:28.873Z,2.33
2022-10-05T15:49:08.423Z,3.45
2022-10-05T15:52:17.508Z,3.72
2022-10-05T15:55:02.594Z,4.57
2022-10-05T15:58:08.389Z,8.43
2022-10-05T16:00:58.751Z,4.50
2022-10-05T16:03:32.919Z,3.33
2022-10-05T16:06:27.306Z,2.70
2022-10-05T16:09:26.712Z,2.67
2022-10-05T16:12:13.961Z,2.30
2022-10-05T16:15:18.658Z,2.67
2022-10-05T16:18:23.893Z,2.50
2022-10-05T16:21:41.329Z,2.55
2022-10-05T16:25:00.553Z,2.42
2022-10-05T16:27:43.678Z,2.45
2022-10-05T16:30:18.586Z,2.40
2022-10-05T16:33:18.235Z,2.38
2022-10-05T16:35:48.326Z,2.25
2022-10-05T16:38:38.697Z,2.53
2022-10-05T16:41:18.649Z,2.70
2022-10-05T16:43:57.885Z,2.20
2022-10-05T16:46:28.276Z,2.72
2022-10-05T16:49:12.715Z,2.42
2022-10-05T16:51:55.327Z,2.17
2022-10-05T16:54:51.805Z,2.40
2022-10-05T16:57:37.722Z,2.45
2022-10-05T17:00:36.202Z,2.58
2022-10-05T17:03:27.457Z,2.47
2022-10-05T17:06:31.854Z,2.30
2022-10-05T17:09:07.636Z,2.60
2022-10-05T17:11:41.293Z,2.47
2022-10-05T17:14:16.909Z,2.60
2022-10-05T17:17:15.828Z,2.65
2022-10-05T17:19:58.102Z,2.42
2022-10-05T17:22:50.786Z,2.47
2022-10-05T17:25:45.387Z,2.50
2022-10-05T17:30:48.733Z,4.90
2022-10-05T17:33:20.435Z,4.60
2022-10-05T17:35:53.255Z,3.17
2022-10-05T17:38:45.612Z,2.90
2022-10-05T17:41:18.702Z,2.80
2022-10-05T17:44:16.106Z,2.70
2022-10-05T17:46:55.644Z,2.70
2022-10-05T17:49:37.622Z,2.67
2022-10-05T17:52:39.505Z,2.47
2022-10-05T17:55:28.062Z,2.92
2022-10-05T17:57:59.582Z,2.72
2022-10-05T18:00:40.365Z,2.72
2022-10-05T18:03:32.932Z,2.83
2022-10-05T18:06:59.103Z,2.45
2022-10-05T18:09:27.174Z,2.67
2022-10-05T18:12:19.228Z,3.70
2022-10-05T18:14:58.217Z,4.55
2022-10-05T18:17:51.339Z,3.78
2022-10-05T18:20:34.697Z,2.80
2022-10-05T18:23:07.835Z,2.53
2022-10-05T18:25:53.558Z,2.03
2022-10-05T18:28:36.328Z,2.58
2022-10-05T18:31:31.152Z,2.75
2022-10-05T18:34:19.640Z,2.80
2022-10-05T18:37:08.309Z,2.40
2022-10-05T18:39:45.634Z,2.30
2022-10-05T18:42:20.223Z,2.35
2022-10-05T18:44:52.750Z,2.30
2022-10-05T18:47:35.200Z,2.50
2022-10-05T18:50:38.502Z,2.30
2022-10-05T18:53:20.910Z,2.40
2022-10-05T18:55:56.279Z,2.20
2022-10-05T18:58:36.660Z,2.15
2022-10-05T19:01:34.781Z,2.00
2022-10-05T19:04:52.615Z,2.00
2022-10-05T19:07:29.536Z,2.45
2022-10-05T19:10:02.219Z,2.50
2022-10-05T19:12:48.281Z,2.20
2022-10-05T19:15:23.694Z,2.33
2022-10-05T19:18:07.799Z,2.25
2022-10-05T19:21:03.022Z,2.00
2022-10-05T19:23:41.512Z,2.22
2022-10-05T19:26:22.256Z,2.22
2022-10-05T19:29:07.878Z,2.30
2022-10-05T19:31:39.881Z,2.50
2022-10-05T19:34:16.250Z,2.25
2022-10-05T19:36:58.255Z,2.28
2022-10-05T19:39:42.044Z,2.28
2022-10-05T19:42:30.839Z,2.40
2022-10-05T19:45:29.305Z,2.47
2022-10-05T19:48:33.629Z,2.35
2022-10-05T19:51:01.669Z,2.20
2022-10-05T19:53:49.952Z,2.40
2022-10-05T19:56:25.241Z,2.25
2022-10-05T19:58:57.483Z,2.10
2022-10-05T20:01:33.534Z,2.13
2022-10-05T20:04:00.999Z,2.40
2022-10-05T20:06:30.971Z,2.40
2022-10-05T20:09:00.238Z,2.25
2022-10-05T20:11:28.284Z,2.60
2022-10-05T20:13:55.260Z,2.38
2022-10-05T20:19:51.660Z,2.40
2022-10-05T20:22:34.979Z,2.35
2022-10-05T20:25:06.390Z,2.30
2022-10-05T20:27:39.684Z,2.53
2022-10-05T20:30:08.728Z,1.98
2022-10-05T20:32:35.801Z,2.30
2022-10-05T20:35:03.579Z,2.50
2022-10-05T20:37:30.756Z,2.63
2022-10-05T20:39:57.764Z,2.83
2022-10-05T20:42:25.431Z,2.28
2022-10-05T20:44:56.692Z,2.40
2022-10-05T20:47:25.296Z,2.38
2022-10-05T20:49:54.549Z,2.25
2022-10-05T20:52:23.114Z,2.30
2022-10-05T20:54:53.807Z,2.10
2022-10-05T20:57:21.267Z,2.88
2022-10-05T20:59:48.500Z,2.35
2022-10-05T21:02:15.563Z,2.40
2022-10-05T21:04:47.526Z,2.60
2022-10-05T21:07:16.669Z,2.20
2022-10-05T21:09:44.748Z,2.55
2022-10-05T21:12:14.275Z,2.50
2022-10-05T21:14:41.361Z,2.40
2022-10-05T21:17:09.395Z,2.88
2022-10-05T21:19:40.541Z,2.35
2022-10-05T21:22:09.387Z,2.60
2022-10-05T21:24:38.248Z,2.47
2022-10-05T21:27:05.833Z,2.38
2022-10-05T21:29:34.281Z,2.30
2022-10-05T21:32:01.730Z,2.30
2022-10-05T21:34:28.902Z,2.72
2022-10-05T21:36:55.931Z,2.13
2022-10-05T21:39:23.670Z,1.75
2022-10-05T21:41:51.013Z,1.73
2022-10-05T21:44:18.267Z,2.10
2022-10-05T21:46:45.439Z,1.80
2022-10-05T21:49:16.083Z,1.90
2022-10-05T21:51:47.663Z,1.90
2022-10-05T21:54:19.648Z,1.90
2022-10-05T21:56:49.733Z,2.15
2022-10-05T21:59:20.259Z,2.08
2022-10-05T22:01:47.352Z,2.33
2022-10-05T22:04:15.060Z,2.00
2022-10-05T22:06:42.238Z,1.52
2022-10-05T22:09:09.495Z,1.52
2022-10-05T22:11:36.628Z,1.90
2022-10-05T22:14:03.857Z,1.70
2022-10-05T22:16:34.099Z,1.60
2022-10-05T22:19:06.525Z,1.70
2022-10-05T22:21:38.202Z,2.13
2022-10-05T22:24:05.591Z,1.70
2022-10-05T22:26:34.741Z,1.90
2022-10-05T22:29:03.379Z,1.25
2022-10-05T22:31:30.520Z,2.53
2022-10-05T22:33:57.766Z,1.85
2022-10-05T22:36:24.841Z,1.70
2022-10-05T22:38:51.897Z,1.77
2022-10-05T22:41:19.124Z,2.20
2022-10-05T22:43:50.814Z,1.95
2022-10-05T22:46:18.655Z,1.60
2022-10-05T22:48:45.789Z,1.95
2022-10-05T22:51:12.847Z,1.45
2022-10-05T22:53:39.899Z,1.17
2022-10-05T22:56:09.001Z,1.40
2022-10-05T22:58:36.779Z,1.13
2022-10-05T23:01:06.413Z,1.25
2022-10-05T23:03:34.170Z,1.15
2022-10-05T23:06:04.294Z,1.08
2022-10-05T23:08:32.473Z,1.00
2022-10-05T23:11:07.110Z,1.20
2022-10-05T23:13:34.199Z,1.00
2022-10-05T23:16:07.793Z,1.15
2022-10-05T23:18:35.328Z,0.65
2022-10-05T23:21:02.883Z,0.80
2022-10-05T23:23:29.913Z,0.75
2022-10-05T23:26:01.296Z,0.80
2022-10-05T23:28:29.500Z,0.80
2022-10-05T23:31:01.374Z,0.70
2022-10-05T23:33:29.439Z,0.60
2022-10-05T23:36:01.101Z,0.77
2022-10-05T23:38:31.425Z,0.50
2022-10-05T23:40:59.744Z,0.60
2022-10-05T23:43:27.328Z,0.80
2022-10-05T23:45:55.389Z,0.60
2022-10-05T23:48:22.908Z,0.68
2022-10-05T23:50:50.384Z,0.50
2022-10-05T23:53:18.230Z,0.80
2022-10-05T23:55:46.156Z,0.50
2022-10-05T23:58:13.214Z,0.50
